sensor_id;sensor_type;location;lat;lon;timestamp;P1;durP1;ratioP1;P2;durP2;ratioP2
66628;SDS011;53532;53.084;6.352;2022-07-22T00:01:16;25.42;;;6.60;;
66628;SDS011;53532;53.084;6.352;2022-07-22T00:03:43;21.20;;;6.07;;
66628;SDS011;53532;53.084;6.352;2022-07-22T00:06:09;21.73;;;6.22;;
66628;SDS011;53532;53.084;6.352;2022-07-22T00:08:35;21.85;;;6.30;;
66628;SDS011;53532;53.084;6.352;2022-07-22T00:11:00;24.27;;;5.65;;
66628;SDS011;53532;53.084;6.352;2022-07-22T00:13:26;18.30;;;5.72;;
66628;SDS011;53532;53.084;6.352;2022-07-22T00:15:52;16.02;;;5.65;;
66628;SDS011;53532;53.084;6.352;2022-07-22T00:18:17;19.77;;;6.25;;
66628;SDS011;53532;53.084;6.352;2022-07-22T00:20:45;21.85;;;6.68;;
66628;SDS011;53532;53.084;6.352;2022-07-22T00:23:10;24.27;;;6.40;;
66628;SDS011;53532;53.084;6.352;2022-07-22T00:25:37;20.95;;;5.85;;
66628;SDS011;53532;53.084;6.352;2022-07-22T00:28:02;21.95;;;6.13;;
66628;SDS011;53532;53.084;6.352;2022-07-22T00:30:28;26.85;;;6.70;;
66628;SDS011;53532;53.084;6.352;2022-07-22T00:32:54;23.60;;;6.32;;
66628;SDS011;53532;53.084;6.352;2022-07-22T00:35:20;23.80;;;6.38;;
66628;SDS011;53532;53.084;6.352;2022-07-22T00:37:48;21.73;;;5.78;;
66628;SDS011;53532;53.084;6.352;2022-07-22T00:40:13;18.38;;;5.60;;
66628;SDS011;53532;53.084;6.352;2022-07-22T00:42:39;20.35;;;6.10;;
66628;SDS011;53532;53.084;6.352;2022-07-22T00:45:06;21.65;;;6.28;;
66628;SDS011;53532;53.084;6.352;2022-07-22T00:47:32;18.48;;;5.50;;
66628;SDS011;53532;53.084;6.352;2022-07-22T00:49:58;22.77;;;6.28;;
66628;SDS011;53532;53.084;6.352;2022-07-22T00:52:24;21.75;;;6.20;;
66628;SDS011;53532;53.084;6.352;2022-07-22T00:54:51;23.77;;;5.82;;
66628;SDS011;53532;53.084;6.352;2022-07-22T00:57:18;19.15;;;6.38;;
66628;SDS011;53532;53.084;6.352;2022-07-22T00:59:44;22.52;;;5.85;;
66628;SDS011;53532;53.084;6.352;2022-07-22T01:02:10;24.63;;;5.88;;
66628;SDS011;53532;53.084;6.352;2022-07-22T01:04:36;21.05;;;5.65;;
66628;SDS011;53532;53.084;6.352;2022-07-22T01:07:02;22.40;;;6.03;;
66628;SDS011;53532;53.084;6.352;2022-07-22T01:09:28;17.27;;;4.82;;
66628;SDS011;53532;53.084;6.352;2022-07-22T01:11:55;17.90;;;5.05;;
66628;SDS011;53532;53.084;6.352;2022-07-22T01:14:21;15.00;;;4.75;;
66628;SDS011;53532;53.084;6.352;2022-07-22T01:16:46;17.60;;;4.50;;
66628;SDS011;53532;53.084;6.352;2022-07-22T01:19:12;14.38;;;4.28;;
66628;SDS011;53532;53.084;6.352;2022-07-22T01:21:39;15.63;;;4.28;;
66628;SDS011;53532;53.084;6.352;2022-07-22T01:24:05;16.67;;;4.20;;
66628;SDS011;53532;53.084;6.352;2022-07-22T01:26:31;16.38;;;4.28;;
66628;SDS011;53532;53.084;6.352;2022-07-22T01:28:58;18.63;;;4.68;;
66628;SDS011;53532;53.084;6.352;2022-07-22T01:31:24;12.75;;;3.80;;
66628;SDS011;53532;53.084;6.352;2022-07-22T01:33:50;13.60;;;4.18;;
66628;SDS011;53532;53.084;6.352;2022-07-22T01:36:16;15.43;;;4.35;;
66628;SDS011;53532;53.084;6.352;2022-07-22T01:38:43;15.80;;;4.00;;
66628;SDS011;53532;53.084;6.352;2022-07-22T01:41:09;21.75;;;4.57;;
66628;SDS011;53532;53.084;6.352;2022-07-22T01:43:35;13.73;;;4.13;;
66628;SDS011;53532;53.084;6.352;2022-07-22T01:46:01;13.50;;;3.92;;
66628;SDS011;53532;53.084;6.352;2022-07-22T01:48:28;16.65;;;4.13;;
66628;SDS011;53532;53.084;6.352;2022-07-22T01:50:54;17.92;;;4.40;;
66628;SDS011;53532;53.084;6.352;2022-07-22T01:53:20;18.10;;;4.00;;
66628;SDS011;53532;53.084;6.352;2022-07-22T01:55:47;16.23;;;3.97;;
66628;SDS011;53532;53.084;6.352;2022-07-22T01:58:13;13.02;;;3.67;;
66628;SDS011;53532;53.084;6.352;2022-07-22T02:00:39;12.70;;;3.83;;
66628;SDS011;53532;53.084;6.352;2022-07-22T02:03:05;15.65;;;3.83;;
66628;SDS011;53532;53.084;6.352;2022-07-22T02:05:31;15.45;;;3.90;;
66628;SDS011;53532;53.084;6.352;2022-07-22T02:08:01;13.70;;;3.90;;
66628;SDS011;53532;53.084;6.352;2022-07-22T02:10:28;12.95;;;3.22;;
66628;SDS011;53532;53.084;6.352;2022-07-22T02:12:56;13.88;;;3.63;;
66628;SDS011;53532;53.084;6.352;2022-07-22T02:15:23;16.02;;;3.67;;
66628;SDS011;53532;53.084;6.352;2022-07-22T02:17:48;11.18;;;3.30;;
66628;SDS011;53532;53.084;6.352;2022-07-22T02:20:14;13.90;;;4.00;;
66628;SDS011;53532;53.084;6.352;2022-07-22T02:22:40;13.73;;;3.78;;
66628;SDS011;53532;53.084;6.352;2022-07-22T02:25:06;14.05;;;3.85;;
66628;SDS011;53532;53.084;6.352;2022-07-22T02:27:32;12.98;;;3.55;;
66628;SDS011;53532;53.084;6.352;2022-07-22T02:29:59;11.52;;;3.60;;
66628;SDS011;53532;53.084;6.352;2022-07-22T02:32:26;13.38;;;3.30;;
66628;SDS011;53532;53.084;6.352;2022-07-22T02:34:52;12.43;;;3.42;;
66628;SDS011;53532;53.084;6.352;2022-07-22T02:37:17;12.60;;;3.58;;
66628;SDS011;53532;53.084;6.352;2022-07-22T02:39:43;15.27;;;3.53;;
66628;SDS011;53532;53.084;6.352;2022-07-22T02:42:09;14.18;;;3.53;;
66628;SDS011;53532;53.084;6.352;2022-07-22T02:44:35;15.00;;;3.42;;
66628;SDS011;53532;53.084;6.352;2022-07-22T02:47:02;12.02;;;3.40;;
66628;SDS011;53532;53.084;6.352;2022-07-22T02:49:28;11.95;;;3.40;;
66628;SDS011;53532;53.084;6.352;2022-07-22T02:51:54;15.68;;;3.55;;
66628;SDS011;53532;53.084;6.352;2022-07-22T02:54:21;13.77;;;3.72;;
66628;SDS011;53532;53.084;6.352;2022-07-22T02:56:48;13.00;;;3.85;;
66628;SDS011;53532;53.084;6.352;2022-07-22T02:59:13;15.02;;;3.97;;
66628;SDS011;53532;53.084;6.352;2022-07-22T03:01:39;13.93;;;3.88;;
66628;SDS011;53532;53.084;6.352;2022-07-22T03:04:07;13.70;;;3.55;;
66628;SDS011;53532;53.084;6.352;2022-07-22T03:06:32;12.68;;;3.50;;
66628;SDS011;53532;53.084;6.352;2022-07-22T03:08:58;11.85;;;3.85;;
66628;SDS011;53532;53.084;6.352;2022-07-22T03:11:24;16.40;;;4.28;;
66628;SDS011;53532;53.084;6.352;2022-07-22T03:13:50;15.63;;;3.83;;
66628;SDS011;53532;53.084;6.352;2022-07-22T03:16:15;11.80;;;4.05;;
66628;SDS011;53532;53.084;6.352;2022-07-22T03:18:41;12.40;;;4.07;;
66628;SDS011;53532;53.084;6.352;2022-07-22T03:21:08;13.68;;;3.83;;
66628;SDS011;53532;53.084;6.352;2022-07-22T03:23:34;10.18;;;3.90;;
66628;SDS011;53532;53.084;6.352;2022-07-22T03:26:00;13.30;;;4.32;;
66628;SDS011;53532;53.084;6.352;2022-07-22T03:28:26;11.88;;;4.18;;
66628;SDS011;53532;53.084;6.352;2022-07-22T03:30:52;12.15;;;4.03;;
66628;SDS011;53532;53.084;6.352;2022-07-22T03:33:18;17.52;;;4.78;;
66628;SDS011;53532;53.084;6.352;2022-07-22T03:35:44;12.85;;;4.30;;
66628;SDS011;53532;53.084;6.352;2022-07-22T03:38:11;13.43;;;4.22;;
66628;SDS011;53532;53.084;6.352;2022-07-22T03:40:37;13.27;;;3.65;;
66628;SDS011;53532;53.084;6.352;2022-07-22T03:43:02;14.55;;;4.30;;
66628;SDS011;53532;53.084;6.352;2022-07-22T03:45:28;13.07;;;3.80;;
66628;SDS011;53532;53.084;6.352;2022-07-22T03:47:54;11.05;;;3.95;;
66628;SDS011;53532;53.084;6.352;2022-07-22T03:50:22;13.90;;;4.13;;
66628;SDS011;53532;53.084;6.352;2022-07-22T03:52:48;13.20;;;3.95;;
66628;SDS011;53532;53.084;6.352;2022-07-22T03:55:15;10.52;;;3.42;;
66628;SDS011;53532;53.084;6.352;2022-07-22T03:57:41;11.18;;;3.38;;
66628;SDS011;53532;53.084;6.352;2022-07-22T04:00:07;13.65;;;3.97;;
66628;SDS011;53532;53.084;6.352;2022-07-22T04:02:33;10.55;;;3.20;;
66628;SDS011;53532;53.084;6.352;2022-07-22T04:04:59;11.82;;;3.90;;
66628;SDS011;53532;53.084;6.352;2022-07-22T04:07:25;11.88;;;4.28;;
66628;SDS011;53532;53.084;6.352;2022-07-22T04:09:51;13.15;;;3.88;;
66628;SDS011;53532;53.084;6.352;2022-07-22T04:12:18;14.90;;;3.83;;
66628;SDS011;53532;53.084;6.352;2022-07-22T04:14:44;9.95;;;3.25;;
66628;SDS011;53532;53.084;6.352;2022-07-22T04:17:10;11.68;;;3.70;;
66628;SDS011;53532;53.084;6.352;2022-07-22T04:19:35;9.98;;;3.33;;
66628;SDS011;53532;53.084;6.352;2022-07-22T04:22:01;13.85;;;3.60;;
66628;SDS011;53532;53.084;6.352;2022-07-22T04:24:27;10.63;;;3.45;;
66628;SDS011;53532;53.084;6.352;2022-07-22T04:26:53;11.85;;;3.67;;
66628;SDS011;53532;53.084;6.352;2022-07-22T04:29:20;9.02;;;3.17;;
66628;SDS011;53532;53.084;6.352;2022-07-22T04:31:46;14.73;;;3.80;;
66628;SDS011;53532;53.084;6.352;2022-07-22T04:34:12;12.75;;;3.75;;
66628;SDS011;53532;53.084;6.352;2022-07-22T04:36:38;15.48;;;3.70;;
66628;SDS011;53532;53.084;6.352;2022-07-22T04:39:04;13.35;;;3.53;;
66628;SDS011;53532;53.084;6.352;2022-07-22T04:41:30;11.15;;;3.40;;
66628;SDS011;53532;53.084;6.352;2022-07-22T04:43:56;12.57;;;3.70;;
66628;SDS011;53532;53.084;6.352;2022-07-22T04:46:23;13.52;;;4.50;;
66628;SDS011;53532;53.084;6.352;2022-07-22T04:48:49;11.57;;;3.78;;
66628;SDS011;53532;53.084;6.352;2022-07-22T04:51:15;16.63;;;4.03;;
66628;SDS011;53532;53.084;6.352;2022-07-22T04:53:41;14.20;;;3.90;;
66628;SDS011;53532;53.084;6.352;2022-07-22T04:56:07;12.80;;;3.85;;
66628;SDS011;53532;53.084;6.352;2022-07-22T04:58:33;14.18;;;3.60;;
66628;SDS011;53532;53.084;6.352;2022-07-22T05:00:58;9.63;;;3.70;;
66628;SDS011;53532;53.084;6.352;2022-07-22T05:03:25;11.32;;;3.60;;
66628;SDS011;53532;53.084;6.352;2022-07-22T05:05:51;11.52;;;3.40;;
66628;SDS011;53532;53.084;6.352;2022-07-22T05:08:17;9.38;;;3.33;;
66628;SDS011;53532;53.084;6.352;2022-07-22T05:10:43;11.40;;;3.50;;
66628;SDS011;53532;53.084;6.352;2022-07-22T05:13:09;15.45;;;4.22;;
66628;SDS011;53532;53.084;6.352;2022-07-22T05:15:36;10.57;;;4.10;;
66628;SDS011;53532;53.084;6.352;2022-07-22T05:18:02;11.45;;;3.97;;
66628;SDS011;53532;53.084;6.352;2022-07-22T05:20:30;11.57;;;4.20;;
66628;SDS011;53532;53.084;6.352;2022-07-22T05:22:56;11.50;;;4.00;;
66628;SDS011;53532;53.084;6.352;2022-07-22T05:25:22;12.20;;;3.97;;
66628;SDS011;53532;53.084;6.352;2022-07-22T05:27:50;12.40;;;4.15;;
66628;SDS011;53532;53.084;6.352;2022-07-22T05:30:17;15.82;;;4.43;;
66628;SDS011;53532;53.084;6.352;2022-07-22T05:32:43;15.60;;;4.50;;
66628;SDS011;53532;53.084;6.352;2022-07-22T05:35:08;18.27;;;4.88;;
66628;SDS011;53532;53.084;6.352;2022-07-22T05:37:36;13.95;;;4.30;;
66628;SDS011;53532;53.084;6.352;2022-07-22T05:40:01;10.65;;;4.10;;
66628;SDS011;53532;53.084;6.352;2022-07-22T05:42:28;12.57;;;4.00;;
66628;SDS011;53532;53.084;6.352;2022-07-22T05:44:53;16.40;;;4.45;;
66628;SDS011;53532;53.084;6.352;2022-07-22T05:47:19;11.45;;;4.40;;
66628;SDS011;53532;53.084;6.352;2022-07-22T05:49:45;15.20;;;4.35;;
66628;SDS011;53532;53.084;6.352;2022-07-22T05:52:11;13.45;;;4.05;;
66628;SDS011;53532;53.084;6.352;2022-07-22T05:54:38;14.32;;;4.45;;
66628;SDS011;53532;53.084;6.352;2022-07-22T05:57:05;12.68;;;3.90;;
66628;SDS011;53532;53.084;6.352;2022-07-22T05:59:33;13.60;;;4.00;;
66628;SDS011;53532;53.084;6.352;2022-07-22T06:01:59;14.70;;;4.65;;
66628;SDS011;53532;53.084;6.352;2022-07-22T06:04:25;9.30;;;3.95;;
66628;SDS011;53532;53.084;6.352;2022-07-22T06:06:50;17.92;;;4.32;;
66628;SDS011;53532;53.084;6.352;2022-07-22T06:09:16;12.70;;;4.60;;
66628;SDS011;53532;53.084;6.352;2022-07-22T06:11:43;14.93;;;4.85;;
66628;SDS011;53532;53.084;6.352;2022-07-22T06:14:09;12.20;;;4.10;;
66628;SDS011;53532;53.084;6.352;2022-07-22T06:16:35;15.20;;;4.63;;
66628;SDS011;53532;53.084;6.352;2022-07-22T06:19:01;10.93;;;3.78;;
66628;SDS011;53532;53.084;6.352;2022-07-22T06:21:27;12.52;;;4.00;;
66628;SDS011;53532;53.084;6.352;2022-07-22T06:23:53;10.95;;;3.92;;
66628;SDS011;53532;53.084;6.352;2022-07-22T06:26:19;11.15;;;3.67;;
66628;SDS011;53532;53.084;6.352;2022-07-22T06:28:46;11.70;;;4.20;;
66628;SDS011;53532;53.084;6.352;2022-07-22T06:31:12;16.77;;;4.05;;
66628;SDS011;53532;53.084;6.352;2022-07-22T06:33:37;11.68;;;4.32;;
66628;SDS011;53532;53.084;6.352;2022-07-22T06:36:03;16.05;;;3.88;;
66628;SDS011;53532;53.084;6.352;2022-07-22T06:38:30;19.35;;;3.83;;
66628;SDS011;53532;53.084;6.352;2022-07-22T06:40:56;12.32;;;3.92;;
66628;SDS011;53532;53.084;6.352;2022-07-22T06:43:22;12.90;;;4.28;;
66628;SDS011;53532;53.084;6.352;2022-07-22T06:45:49;12.50;;;3.83;;
66628;SDS011;53532;53.084;6.352;2022-07-22T06:48:15;15.65;;;3.63;;
66628;SDS011;53532;53.084;6.352;2022-07-22T06:50:41;10.90;;;3.28;;
66628;SDS011;53532;53.084;6.352;2022-07-22T06:53:07;12.95;;;3.72;;
66628;SDS011;53532;53.084;6.352;2022-07-22T06:55:33;12.98;;;2.88;;
66628;SDS011;53532;53.084;6.352;2022-07-22T06:57:59;9.65;;;3.50;;
66628;SDS011;53532;53.084;6.352;2022-07-22T07:00:25;10.98;;;3.58;;
66628;SDS011;53532;53.084;6.352;2022-07-22T07:02:53;12.45;;;3.63;;
66628;SDS011;53532;53.084;6.352;2022-07-22T07:05:18;10.75;;;3.30;;
66628;SDS011;53532;53.084;6.352;2022-07-22T07:07:44;13.25;;;3.30;;
66628;SDS011;53532;53.084;6.352;2022-07-22T07:10:10;12.40;;;3.33;;
66628;SDS011;53532;53.084;6.352;2022-07-22T07:12:37;11.93;;;3.22;;
66628;SDS011;53532;53.084;6.352;2022-07-22T07:15:03;12.77;;;3.45;;
66628;SDS011;53532;53.084;6.352;2022-07-22T07:17:30;10.25;;;3.00;;
66628;SDS011;53532;53.084;6.352;2022-07-22T07:19:58;12.60;;;3.20;;
66628;SDS011;53532;53.084;6.352;2022-07-22T07:22:23;11.75;;;3.08;;
66628;SDS011;53532;53.084;6.352;2022-07-22T07:24:49;9.35;;;3.05;;
66628;SDS011;53532;53.084;6.352;2022-07-22T07:27:15;20.63;;;3.10;;
66628;SDS011;53532;53.084;6.352;2022-07-22T07:29:41;10.65;;;3.08;;
66628;SDS011;53532;53.084;6.352;2022-07-22T07:32:07;9.60;;;3.30;;
66628;SDS011;53532;53.084;6.352;2022-07-22T07:34:32;10.15;;;3.13;;
66628;SDS011;53532;53.084;6.352;2022-07-22T07:37:00;11.50;;;3.05;;
66628;SDS011;53532;53.084;6.352;2022-07-22T07:39:25;8.02;;;2.75;;
66628;SDS011;53532;53.084;6.352;2022-07-22T07:41:51;10.55;;;2.78;;
66628;SDS011;53532;53.084;6.352;2022-07-22T07:44:17;9.90;;;2.95;;
66628;SDS011;53532;53.084;6.352;2022-07-22T07:46:43;15.60;;;2.88;;
66628;SDS011;53532;53.084;6.352;2022-07-22T07:49:09;9.77;;;3.05;;
66628;SDS011;53532;53.084;6.352;2022-07-22T07:51:35;8.65;;;2.90;;
66628;SDS011;53532;53.084;6.352;2022-07-22T07:54:02;9.15;;;2.95;;
66628;SDS011;53532;53.084;6.352;2022-07-22T07:56:28;8.77;;;3.08;;
66628;SDS011;53532;53.084;6.352;2022-07-22T07:58:54;8.45;;;2.90;;
66628;SDS011;53532;53.084;6.352;2022-07-22T08:01:20;7.68;;;2.67;;
66628;SDS011;53532;53.084;6.352;2022-07-22T08:03:45;11.60;;;3.08;;
66628;SDS011;53532;53.084;6.352;2022-07-22T08:06:11;11.65;;;3.00;;
66628;SDS011;53532;53.084;6.352;2022-07-22T08:08:37;8.25;;;2.67;;
66628;SDS011;53532;53.084;6.352;2022-07-22T08:11:04;9.00;;;2.65;;
66628;SDS011;53532;53.084;6.352;2022-07-22T08:13:30;12.65;;;3.30;;
66628;SDS011;53532;53.084;6.352;2022-07-22T08:15:56;9.70;;;3.10;;
66628;SDS011;53532;53.084;6.352;2022-07-22T08:18:22;10.95;;;3.20;;
66628;SDS011;53532;53.084;6.352;2022-07-22T08:20:50;12.23;;;3.10;;
66628;SDS011;53532;53.084;6.352;2022-07-22T08:23:16;8.32;;;2.78;;
66628;SDS011;53532;53.084;6.352;2022-07-22T08:25:41;11.68;;;3.00;;
66628;SDS011;53532;53.084;6.352;2022-07-22T08:28:08;8.98;;;2.80;;
66628;SDS011;53532;53.084;6.352;2022-07-22T08:30:34;11.27;;;3.20;;
66628;SDS011;53532;53.084;6.352;2022-07-22T08:33:01;8.20;;;3.10;;
66628;SDS011;53532;53.084;6.352;2022-07-22T08:35:27;8.95;;;3.72;;
66628;SDS011;53532;53.084;6.352;2022-07-22T08:37:52;9.38;;;3.35;;
66628;SDS011;53532;53.084;6.352;2022-07-22T08:40:19;11.10;;;2.90;;
66628;SDS011;53532;53.084;6.352;2022-07-22T08:42:46;10.05;;;3.22;;
66628;SDS011;53532;53.084;6.352;2022-07-22T08:45:14;10.45;;;3.20;;
66628;SDS011;53532;53.084;6.352;2022-07-22T08:47:40;10.35;;;3.40;;
66628;SDS011;53532;53.084;6.352;2022-07-22T08:50:09;11.20;;;3.40;;
66628;SDS011;53532;53.084;6.352;2022-07-22T08:52:35;12.18;;;2.80;;
66628;SDS011;53532;53.084;6.352;2022-07-22T08:55:02;8.07;;;2.47;;
66628;SDS011;53532;53.084;6.352;2022-07-22T08:57:28;9.07;;;2.45;;
66628;SDS011;53532;53.084;6.352;2022-07-22T08:59:55;7.22;;;2.22;;
66628;SDS011;53532;53.084;6.352;2022-07-22T09:02:24;7.55;;;1.90;;
66628;SDS011;53532;53.084;6.352;2022-07-22T09:04:54;10.45;;;2.33;;
66628;SDS011;53532;53.084;6.352;2022-07-22T09:07:26;12.48;;;2.70;;
66628;SDS011;53532;53.084;6.352;2022-07-22T09:12:20;8.50;;;1.88;;
66628;SDS011;53532;53.084;6.352;2022-07-22T09:14:48;7.97;;;2.20;;
66628;SDS011;53532;53.084;6.352;2022-07-22T09:17:24;14.90;;;2.60;;
66628;SDS011;53532;53.084;6.352;2022-07-22T09:19:51;6.70;;;2.28;;
66628;SDS011;53532;53.084;6.352;2022-07-22T09:22:29;6.53;;;1.90;;
66628;SDS011;53532;53.084;6.352;2022-07-22T09:24:59;8.63;;;2.35;;
66628;SDS011;53532;53.084;6.352;2022-07-22T09:27:43;12.20;;;2.28;;
66628;SDS011;53532;53.084;6.352;2022-07-22T09:30:11;7.95;;;2.28;;
66628;SDS011;53532;53.084;6.352;2022-07-22T09:32:40;6.20;;;1.85;;
66628;SDS011;53532;53.084;6.352;2022-07-22T09:35:07;8.27;;;2.65;;
66628;SDS011;53532;53.084;6.352;2022-07-22T09:37:35;7.80;;;2.35;;
66628;SDS011;53532;53.084;6.352;2022-07-22T09:40:11;9.00;;;2.40;;
66628;SDS011;53532;53.084;6.352;2022-07-22T09:42:43;5.97;;;2.22;;
66628;SDS011;53532;53.084;6.352;2022-07-22T09:45:10;6.90;;;1.63;;
66628;SDS011;53532;53.084;6.352;2022-07-22T09:47:36;5.55;;;1.58;;
66628;SDS011;53532;53.084;6.352;2022-07-22T09:50:07;6.38;;;1.42;;
66628;SDS011;53532;53.084;6.352;2022-07-22T09:52:43;7.47;;;1.50;;
66628;SDS011;53532;53.084;6.352;2022-07-22T09:55:09;3.90;;;1.48;;
66628;SDS011;53532;53.084;6.352;2022-07-22T09:57:38;6.03;;;1.70;;
66628;SDS011;53532;53.084;6.352;2022-07-22T10:00:04;4.57;;;1.60;;
66628;SDS011;53532;53.084;6.352;2022-07-22T10:02:35;3.85;;;1.48;;
66628;SDS011;53532;53.084;6.352;2022-07-22T10:05:08;3.92;;;1.42;;
66628;SDS011;53532;53.084;6.352;2022-07-22T10:07:35;3.78;;;1.30;;
66628;SDS011;53532;53.084;6.352;2022-07-22T10:10:02;6.10;;;1.40;;
66628;SDS011;53532;53.084;6.352;2022-07-22T10:12:29;4.28;;;1.20;;
66628;SDS011;53532;53.084;6.352;2022-07-22T10:14:56;3.95;;;1.42;;
66628;SDS011;53532;53.084;6.352;2022-07-22T10:17:23;8.27;;;1.60;;
66628;SDS011;53532;53.084;6.352;2022-07-22T10:19:49;4.25;;;1.40;;
66628;SDS011;53532;53.084;6.352;2022-07-22T10:25:01;5.43;;;1.73;;
66628;SDS011;53532;53.084;6.352;2022-07-22T10:30:09;6.95;;;1.70;;
66628;SDS011;53532;53.084;6.352;2022-07-22T10:32:35;9.45;;;1.83;;
66628;SDS011;53532;53.084;6.352;2022-07-22T10:35:21;5.75;;;1.77;;
66628;SDS011;53532;53.084;6.352;2022-07-22T10:37:48;9.20;;;1.60;;
66628;SDS011;53532;53.084;6.352;2022-07-22T10:40:16;6.82;;;1.90;;
66628;SDS011;53532;53.084;6.352;2022-07-22T10:45:23;7.80;;;1.70;;
66628;SDS011;53532;53.084;6.352;2022-07-22T10:47:53;6.35;;;1.45;;
66628;SDS011;53532;53.084;6.352;2022-07-22T10:50:38;6.88;;;1.58;;
66628;SDS011;53532;53.084;6.352;2022-07-22T10:53:05;5.15;;;1.63;;
66628;SDS011;53532;53.084;6.352;2022-07-22T10:55:33;6.88;;;1.65;;
66628;SDS011;53532;53.084;6.352;2022-07-22T10:58:00;6.40;;;1.80;;
66628;SDS011;53532;53.084;6.352;2022-07-22T11:00:26;6.00;;;1.38;;
66628;SDS011;53532;53.084;6.352;2022-07-22T11:02:52;4.43;;;1.50;;
66628;SDS011;53532;53.084;6.352;2022-07-22T11:05:24;6.30;;;1.50;;
66628;SDS011;53532;53.084;6.352;2022-07-22T11:07:50;4.72;;;1.40;;
66628;SDS011;53532;53.084;6.352;2022-07-22T11:10:17;4.93;;;1.70;;
66628;SDS011;53532;53.084;6.352;2022-07-22T11:12:46;6.53;;;1.67;;
66628;SDS011;53532;53.084;6.352;2022-07-22T11:15:12;7.82;;;1.52;;
66628;SDS011;53532;53.084;6.352;2022-07-22T11:17:39;7.07;;;1.30;;
66628;SDS011;53532;53.084;6.352;2022-07-22T11:20:06;6.05;;;1.27;;
66628;SDS011;53532;53.084;6.352;2022-07-22T11:22:32;5.25;;;1.40;;
66628;SDS011;53532;53.084;6.352;2022-07-22T11:24:59;4.63;;;1.40;;
66628;SDS011;53532;53.084;6.352;2022-07-22T11:27:26;5.50;;;1.30;;
66628;SDS011;53532;53.084;6.352;2022-07-22T11:29:54;5.78;;;1.40;;
66628;SDS011;53532;53.084;6.352;2022-07-22T11:32:22;6.65;;;1.30;;
66628;SDS011;53532;53.084;6.352;2022-07-22T11:34:48;6.57;;;1.40;;
66628;SDS011;53532;53.084;6.352;2022-07-22T11:37:15;5.82;;;1.30;;
66628;SDS011;53532;53.084;6.352;2022-07-22T11:39:42;4.53;;;1.55;;
66628;SDS011;53532;53.084;6.352;2022-07-22T11:42:08;4.63;;;1.52;;
66628;SDS011;53532;53.084;6.352;2022-07-22T11:44:35;4.13;;;1.70;;
66628;SDS011;53532;53.084;6.352;2022-07-22T11:47:03;4.00;;;1.30;;
66628;SDS011;53532;53.084;6.352;2022-07-22T11:49:30;4.88;;;1.30;;
66628;SDS011;53532;53.084;6.352;2022-07-22T11:51:58;5.15;;;1.23;;
66628;SDS011;53532;53.084;6.352;2022-07-22T11:54:25;5.30;;;1.25;;
66628;SDS011;53532;53.084;6.352;2022-07-22T11:56:51;5.07;;;1.33;;
66628;SDS011;53532;53.084;6.352;2022-07-22T11:59:17;3.88;;;1.00;;
66628;SDS011;53532;53.084;6.352;2022-07-22T12:01:44;7.78;;;1.33;;
66628;SDS011;53532;53.084;6.352;2022-07-22T12:04:12;3.25;;;1.08;;
66628;SDS011;53532;53.084;6.352;2022-07-22T12:06:39;3.92;;;1.20;;
66628;SDS011;53532;53.084;6.352;2022-07-22T12:09:07;4.25;;;1.20;;
66628;SDS011;53532;53.084;6.352;2022-07-22T12:11:34;3.97;;;1.10;;
66628;SDS011;53532;53.084;6.352;2022-07-22T12:14:04;5.50;;;1.30;;
66628;SDS011;53532;53.084;6.352;2022-07-22T12:16:31;3.17;;;1.23;;
66628;SDS011;53532;53.084;6.352;2022-07-22T12:18:57;3.38;;;1.00;;
66628;SDS011;53532;53.084;6.352;2022-07-22T12:21:27;4.15;;;1.20;;
66628;SDS011;53532;53.084;6.352;2022-07-22T12:23:54;3.50;;;1.20;;
66628;SDS011;53532;53.084;6.352;2022-07-22T12:26:35;5.18;;;1.17;;
66628;SDS011;53532;53.084;6.352;2022-07-22T12:29:12;6.55;;;1.60;;
66628;SDS011;53532;53.084;6.352;2022-07-22T12:31:41;3.90;;;1.38;;
66628;SDS011;53532;53.084;6.352;2022-07-22T12:34:07;4.55;;;1.23;;
66628;SDS011;53532;53.084;6.352;2022-07-22T12:36:34;4.57;;;1.20;;
66628;SDS011;53532;53.084;6.352;2022-07-22T12:39:10;4.00;;;1.30;;
66628;SDS011;53532;53.084;6.352;2022-07-22T12:41:43;2.88;;;1.20;;
66628;SDS011;53532;53.084;6.352;2022-07-22T12:44:14;3.30;;;1.02;;
66628;SDS011;53532;53.084;6.352;2022-07-22T12:46:43;2.95;;;0.90;;
66628;SDS011;53532;53.084;6.352;2022-07-22T12:49:10;4.70;;;1.13;;
66628;SDS011;53532;53.084;6.352;2022-07-22T12:51:38;4.68;;;1.10;;
66628;SDS011;53532;53.084;6.352;2022-07-22T12:54:04;2.65;;;0.90;;
66628;SDS011;53532;53.084;6.352;2022-07-22T12:56:30;2.85;;;1.20;;
66628;SDS011;53532;53.084;6.352;2022-07-22T12:58:58;3.72;;;1.02;;
66628;SDS011;53532;53.084;6.352;2022-07-22T13:01:24;3.08;;;1.00;;
66628;SDS011;53532;53.084;6.352;2022-07-22T13:03:50;1.83;;;0.93;;
66628;SDS011;53532;53.084;6.352;2022-07-22T13:06:17;2.47;;;1.00;;
66628;SDS011;53532;53.084;6.352;2022-07-22T13:08:45;2.97;;;1.00;;
66628;SDS011;53532;53.084;6.352;2022-07-22T13:11:12;5.57;;;1.20;;
66628;SDS011;53532;53.084;6.352;2022-07-22T13:13:38;4.28;;;1.10;;
66628;SDS011;53532;53.084;6.352;2022-07-22T13:16:05;2.50;;;1.13;;
66628;SDS011;53532;53.084;6.352;2022-07-22T13:18:31;2.95;;;1.00;;
66628;SDS011;53532;53.084;6.352;2022-07-22T13:20:57;5.15;;;1.20;;
66628;SDS011;53532;53.084;6.352;2022-07-22T13:23:23;1.63;;;0.82;;
66628;SDS011;53532;53.084;6.352;2022-07-22T13:25:51;2.95;;;1.02;;
66628;SDS011;53532;53.084;6.352;2022-07-22T13:28:17;3.75;;;1.20;;
66628;SDS011;53532;53.084;6.352;2022-07-22T13:30:44;4.70;;;1.08;;
66628;SDS011;53532;53.084;6.352;2022-07-22T13:33:10;3.05;;;1.20;;
66628;SDS011;53532;53.084;6.352;2022-07-22T13:35:36;3.00;;;1.10;;
66628;SDS011;53532;53.084;6.352;2022-07-22T13:38:02;2.00;;;1.08;;
66628;SDS011;53532;53.084;6.352;2022-07-22T13:40:29;4.57;;;1.30;;
66628;SDS011;53532;53.084;6.352;2022-07-22T13:42:56;6.53;;;1.48;;
66628;SDS011;53532;53.084;6.352;2022-07-22T13:45:23;3.90;;;1.20;;
66628;SDS011;53532;53.084;6.352;2022-07-22T13:47:50;4.80;;;1.30;;
66628;SDS011;53532;53.084;6.352;2022-07-22T13:50:16;2.42;;;1.10;;
66628;SDS011;53532;53.084;6.352;2022-07-22T13:52:42;5.32;;;1.40;;
66628;SDS011;53532;53.084;6.352;2022-07-22T13:55:11;4.45;;;1.42;;
66628;SDS011;53532;53.084;6.352;2022-07-22T13:57:38;4.85;;;1.20;;
66628;SDS011;53532;53.084;6.352;2022-07-22T14:00:07;4.72;;;1.42;;
66628;SDS011;53532;53.084;6.352;2022-07-22T14:02:33;4.57;;;1.45;;
66628;SDS011;53532;53.084;6.352;2022-07-22T14:05:00;4.57;;;1.60;;
66628;SDS011;53532;53.084;6.352;2022-07-22T14:07:26;4.32;;;1.42;;
66628;SDS011;53532;53.084;6.352;2022-07-22T14:09:52;6.50;;;1.80;;
66628;SDS011;53532;53.084;6.352;2022-07-22T14:12:18;3.13;;;1.23;;
66628;SDS011;53532;53.084;6.352;2022-07-22T14:14:44;3.95;;;1.48;;
66628;SDS011;53532;53.084;6.352;2022-07-22T14:17:12;5.28;;;1.60;;
66628;SDS011;53532;53.084;6.352;2022-07-22T14:19:38;4.45;;;1.60;;
66628;SDS011;53532;53.084;6.352;2022-07-22T14:22:04;6.38;;;1.50;;
66628;SDS011;53532;53.084;6.352;2022-07-22T14:24:30;5.47;;;1.77;;
66628;SDS011;53532;53.084;6.352;2022-07-22T14:26:57;6.28;;;1.75;;
66628;SDS011;53532;53.084;6.352;2022-07-22T14:29:23;5.78;;;1.80;;
66628;SDS011;53532;53.084;6.352;2022-07-22T14:31:49;5.57;;;1.67;;
66628;SDS011;53532;53.084;6.352;2022-07-22T14:34:17;7.88;;;2.03;;
66628;SDS011;53532;53.084;6.352;2022-07-22T14:36:43;7.72;;;1.90;;
66628;SDS011;53532;53.084;6.352;2022-07-22T14:39:09;6.65;;;1.90;;
66628;SDS011;53532;53.084;6.352;2022-07-22T14:41:35;7.50;;;2.00;;
66628;SDS011;53532;53.084;6.352;2022-07-22T14:44:02;6.38;;;1.77;;
66628;SDS011;53532;53.084;6.352;2022-07-22T14:46:28;6.60;;;2.00;;
66628;SDS011;53532;53.084;6.352;2022-07-22T14:48:54;9.30;;;2.00;;